Time;durP1;ratioP1;P1;durP2;ratioP2;P2;SDS_P1;SDS_P2;PMS_P1;PMS_P2;Temp;Humidity;BMP_temperature;BMP_pressure;BME280_temperature;BME280_humidity;BME280_pressure;Samples;Min_cycle;Max_cycle;Signal;HPM_P1;HPM_P2
2023/12/22 00:00:10;;;;;;;18.38;10.13;;;;;;;3.94;69.53;98177.81;5052616;28;20130;-26
2023/12/22 00:02:35;;;;;;;19.52;10.23;;;;;;;4.15;69.67;98175.06;5052329;28;20026;-26
2023/12/22 00:05:01;;;;;;;19.25;9.70;;;;;;;4.18;69.28;98174.63;5046934;28;20442;-26
2023/12/22 00:07:26;;;;;;;20.13;10.60;;;;;;;4.08;69.73;98172.41;5032024;28;20044;-26
2023/12/22 00:09:51;;;;;;;16.70;9.73;;;;;;;4.01;69.43;98166.31;5032263;28;20060;-26
2023/12/22 00:12:17;;;;;;;19.98;9.95;;;;;;;3.94;69.50;98160.25;5032510;28;20041;-26
2023/12/22 00:14:42;;;;;;;18.35;9.85;;;;;;;4.01;68.63;98150.50;5042718;28;20021;-26
2023/12/22 00:17:07;;;;;;;18.45;9.05;;;;;;;4.23;67.82;98137.19;5052150;28;20121;-26
2023/12/22 00:19:33;;;;;;;16.63;9.35;;;;;;;4.20;67.63;98140.22;5052192;28;20086;-25
2023/12/22 00:21:58;;;;;;;19.02;10.13;;;;;;;4.39;67.07;98139.41;5051948;28;20029;-26
2023/12/22 00:24:24;;;;;;;19.23;10.18;;;;;;;4.00;68.62;98142.81;5051910;28;20025;-25
2023/12/22 00:26:49;;;;;;;18.38;9.52;;;;;;;4.25;68.08;98145.69;5051116;28;20025;-26
2023/12/22 00:29:15;;;;;;;19.90;10.02;;;;;;;4.13;68.41;98153.34;5051587;28;20124;-25
2023/12/22 00:31:40;;;;;;;17.63;9.68;;;;;;;4.10;68.31;98154.56;5051623;28;20025;-26
2023/12/22 00:34:05;;;;;;;19.80;10.40;;;;;;;3.64;70.71;98155.28;5051404;28;20084;-26
2023/12/22 00:36:31;;;;;;;17.42;9.70;;;;;;;3.76;69.95;98154.72;5051545;28;20087;-26
2023/12/22 00:38:56;;;;;;;17.70;9.30;;;;;;;3.73;69.85;98145.38;5051555;28;20029;-26
2023/12/22 00:41:22;;;;;;;18.58;9.00;;;;;;;3.82;69.24;98146.81;5051365;28;20028;-26
2023/12/22 00:43:47;;;;;;;17.13;8.50;;;;;;;3.31;70.63;98152.50;5051347;28;20078;-27
2023/12/22 00:46:13;;;;;;;19.38;8.57;;;;;;;3.45;70.95;98135.78;5051716;28;20025;-27
2023/12/22 00:48:39;;;;;;;17.58;8.77;;;;;;;3.53;70.66;98155.84;5051741;28;20072;-27
2023/12/22 00:51:07;;;;;;;17.10;9.00;;;;;;;3.65;70.21;98158.72;5051349;28;20052;-26
2023/12/22 00:53:32;;;;;;;18.02;9.13;;;;;;;3.66;69.61;98139.31;5051164;28;20032;-26
2023/12/22 00:55:59;;;;;;;16.88;8.88;;;;;;;3.48;70.24;98143.31;5051012;28;20029;-26
2023/12/22 00:58:24;;;;;;;16.25;8.13;;;;;;;3.43;70.75;98137.81;5050554;28;20029;-26
2023/12/22 01:00:49;;;;;;;17.83;8.50;;;;;;;3.35;70.50;98126.63;5050828;28;20115;-26
2023/12/22 01:03:15;;;;;;;16.45;8.30;;;;;;;3.48;71.18;98145.09;5051562;28;20025;-26
2023/12/22 01:05:40;;;;;;;13.88;8.45;;;;;;;3.16;71.89;98130.81;5051692;28;20107;-26
2023/12/22 01:08:06;;;;;;;15.98;8.85;;;;;;;3.49;70.88;98118.59;5051620;28;20024;-26
2023/12/22 01:10:31;;;;;;;16.50;10.00;;;;;;;3.41;70.91;98120.59;5051096;28;20086;-26
2023/12/22 01:12:56;;;;;;;19.25;10.55;;;;;;;3.56;70.32;98123.06;5049181;28;20112;-26
2023/12/22 01:15:22;;;;;;;17.48;8.98;;;;;;;3.54;70.93;98133.78;5032372;28;20529;-26
2023/12/22 01:17:48;;;;;;;15.35;8.65;;;;;;;3.46;71.35;98129.50;5031612;28;20474;-26
2023/12/22 01:20:13;;;;;;;15.85;8.00;;;;;;;3.79;70.73;98130.63;5031701;28;20030;-25
2023/12/22 01:22:38;;;;;;;16.50;8.50;;;;;;;3.41;71.63;98117.97;5031669;28;20070;-26
2023/12/22 01:25:05;;;;;;;20.80;9.80;;;;;;;3.33;72.84;98108.41;5031315;28;20048;-25
2023/12/22 01:27:31;;;;;;;16.00;9.05;;;;;;;3.40;72.67;98093.50;5031060;28;20151;-25
2023/12/22 01:29:56;;;;;;;16.85;8.63;;;;;;;3.43;72.22;98093.09;5031026;28;20068;-25
2023/12/22 01:32:22;;;;;;;15.45;9.00;;;;;;;3.53;71.84;98096.16;5030902;28;20095;-26
2023/12/22 01:34:47;;;;;;;17.70;9.27;;;;;;;3.52;72.01;98101.59;5030845;28;20040;-25
2023/12/22 01:37:12;;;;;;;19.70;9.18;;;;;;;3.75;71.28;98077.59;5030821;28;20109;-25
2023/12/22 01:39:38;;;;;;;18.00;10.20;;;;;;;3.61;72.20;98079.38;5030994;28;20029;-25
2023/12/22 01:42:04;;;;;;;18.95;9.07;;;;;;;3.84;70.84;98080.84;5030757;28;20029;-26
2023/12/22 01:44:29;;;;;;;19.17;9.13;;;;;;;3.77;70.60;98075.59;5031087;28;20043;-25
2023/12/22 01:46:55;;;;;;;17.35;10.02;;;;;;;3.58;71.75;98077.16;5031155;28;20116;-25
2023/12/22 01:49:22;;;;;;;19.35;10.50;;;;;;;3.67;71.74;98062.00;5031072;28;20466;-26
2023/12/22 01:51:49;;;;;;;18.25;10.05;;;;;;;3.46;72.23;98065.59;5030995;28;20032;-26
2023/12/22 01:54:18;;;;;;;19.35;10.60;;;;;;;3.39;72.81;98057.69;5034302;28;20025;-26
2023/12/22 01:56:44;;;;;;;17.77;10.27;;;;;;;3.62;72.13;98062.59;5050648;28;20025;-26
2023/12/22 01:59:11;;;;;;;17.88;9.85;;;;;;;3.62;72.38;98067.06;5042041;28;20104;-26
2023/12/22 02:01:36;;;;;;;20.20;10.25;;;;;;;3.66;72.38;98058.56;5049355;28;20029;-26
2023/12/22 02:04:02;;;;;;;20.15;10.13;;;;;;;3.28;72.68;98053.00;5050943;28;20025;-26
2023/12/22 02:06:30;;;;;;;17.38;9.90;;;;;;;3.47;72.85;98039.09;5050652;28;20043;-26
2023/12/22 02:08:57;;;;;;;19.55;10.30;;;;;;;3.41;72.80;98046.94;5050858;28;20056;-25
2023/12/22 02:11:22;;;;;;;17.23;9.98;;;;;;;3.35;73.21;98050.38;5050644;28;20036;-26
2023/12/22 02:13:48;;;;;;;20.77;9.80;;;;;;;3.39;72.97;98051.59;5050431;28;20033;-26
2023/12/22 02:16:24;;;;;;;19.20;9.80;;;;;;;3.36;73.28;98058.06;5049626;28;20099;-26
2023/12/22 02:18:55;;;;;;;20.35;9.90;;;;;;;3.21;73.84;98046.91;5049569;28;20112;-27
2023/12/22 02:21:21;;;;;;;15.63;9.48;;;;;;;3.05;74.45;98033.09;5049801;28;20377;-26
2023/12/22 02:23:47;;;;;;;19.02;9.30;;;;;;;3.15;75.19;98024.03;5049895;28;20078;-25
2023/12/22 02:26:33;;;;;;;19.35;9.60;;;;;;;3.49;74.47;98052.84;5050763;28;20024;-26
2023/12/22 02:29:01;;;;;;;18.52;8.95;;;;;;;3.31;74.45;98047.34;5046094;28;20218;-25
2023/12/22 02:31:35;;;;;;;15.27;8.43;;;;;;;3.43;73.86;98032.63;5047936;28;20510;-25
2023/12/22 02:34:04;;;;;;;17.05;8.38;;;;;;;3.29;73.66;98030.94;5050288;28;20053;-26
2023/12/22 02:36:32;;;;;;;16.65;9.00;;;;;;;3.35;72.91;98029.34;5050521;28;20484;-26
2023/12/22 02:38:58;;;;;;;16.17;8.60;;;;;;;3.43;73.88;98031.81;5050468;28;20025;-26
2023/12/22 02:41:24;;;;;;;15.85;8.80;;;;;;;3.30;74.10;98007.09;5050296;28;20419;-26
2023/12/22 02:43:50;;;;;;;15.50;8.57;;;;;;;3.14;74.33;98004.81;5050462;28;20099;-26
2023/12/22 02:46:15;;;;;;;16.80;8.68;;;;;;;3.08;73.87;98005.59;5050208;28;20566;-26
2023/12/22 02:48:41;;;;;;;17.25;9.52;;;;;;;3.28;73.91;98024.09;5050113;28;20415;-26
2023/12/22 02:51:06;;;;;;;17.08;8.57;;;;;;;3.21;74.13;98026.69;5052834;28;20147;-26
2023/12/22 02:53:31;;;;;;;15.95;8.48;;;;;;;3.35;73.77;98024.09;5053412;28;20024;-26
2023/12/22 02:55:57;;;;;;;15.98;8.23;;;;;;;3.46;72.63;98024.31;5054517;28;20389;-26
2023/12/22 02:58:22;;;;;;;15.55;8.23;;;;;;;3.57;72.52;98028.19;5041895;28;20025;-26
2023/12/22 03:00:48;;;;;;;15.38;8.13;;;;;;;3.50;73.08;98029.97;5032333;28;20029;-25
2023/12/22 03:03:13;;;;;;;16.90;8.80;;;;;;;2.92;74.72;98033.06;5033959;28;20486;-26
2023/12/22 03:05:39;;;;;;;19.10;9.18;;;;;;;2.91;74.90;98026.16;5034177;28;20074;-26
2023/12/22 03:08:04;;;;;;;17.67;8.70;;;;;;;3.25;73.84;98041.03;5033954;28;20405;-26
2023/12/22 03:10:30;;;;;;;16.60;8.27;;;;;;;3.31;73.31;98042.06;5034103;28;20017;-25
2023/12/22 03:12:55;;;;;;;18.08;9.00;;;;;;;3.29;73.29;98038.84;5033745;28;20044;-25
2023/12/22 03:15:21;;;;;;;17.00;8.88;;;;;;;3.37;73.47;98046.56;5033780;28;20036;-26
2023/12/22 03:17:46;;;;;;;17.77;9.60;;;;;;;3.27;73.17;98038.22;5033754;28;20026;-26
2023/12/22 03:20:11;;;;;;;16.55;9.25;;;;;;;3.06;74.15;98033.91;5033447;28;20090;-26
2023/12/22 03:22:37;;;;;;;17.20;9.95;;;;;;;2.88;75.18;98027.38;5033516;28;20017;-26
2023/12/22 03:25:02;;;;;;;19.13;9.68;;;;;;;3.04;74.04;98013.06;5033513;28;20123;-26
2023/12/22 03:27:27;;;;;;;21.63;9.88;;;;;;;2.84;75.28;98006.97;5033619;28;20033;-26
2023/12/22 03:29:53;;;;;;;19.42;9.23;;;;;;;2.61;76.16;98023.81;5047203;28;20035;-26
2023/12/22 03:32:19;;;;;;;19.05;10.20;;;;;;;2.80;76.38;98026.72;5051128;28;20608;-27
2023/12/22 03:34:44;;;;;;;21.00;10.38;;;;;;;2.65;76.26;98027.69;5052772;28;20098;-26
2023/12/22 03:37:10;;;;;;;20.48;10.43;;;;;;;2.97;75.27;98028.03;5053342;28;20025;-25
2023/12/22 03:39:35;;;;;;;22.27;10.80;;;;;;;2.92;75.10;98027.81;5053283;28;20078;-26
2023/12/22 03:42:00;;;;;;;19.98;10.98;;;;;;;3.03;75.10;98019.34;5053413;28;20409;-25
2023/12/22 03:44:26;;;;;;;20.80;9.75;;;;;;;2.79;75.42;98036.44;5053491;28;20052;-25
2023/12/22 03:46:51;;;;;;;18.88;10.98;;;;;;;3.01;74.14;98012.66;5053273;28;20422;-26
2023/12/22 03:49:17;;;;;;;23.50;11.05;;;;;;;3.02;74.18;97991.44;5044805;28;20033;-25
2023/12/22 03:51:42;;;;;;;20.38;10.43;;;;;;;3.07;73.70;97993.50;5052974;28;20040;-25
2023/12/22 03:54:08;;;;;;;21.20;10.18;;;;;;;2.94;74.55;97992.44;5052964;28;20033;-25
2023/12/22 03:56:33;;;;;;;20.60;10.23;;;;;;;2.96;74.12;97988.81;5053098;28;20032;-26
2023/12/22 03:58:59;;;;;;;22.75;10.70;;;;;;;2.86;75.26;97995.25;5053064;28;20444;-26
2023/12/22 04:01:24;;;;;;;22.98;11.15;;;;;;;3.01;73.98;97986.38;5052045;28;20091;-26
2023/12/22 04:03:49;;;;;;;20.30;10.18;;;;;;;3.20;72.79;97977.75;5052946;28;20037;-26
2023/12/22 04:06:15;;;;;;;21.10;10.90;;;;;;;3.21;74.54;97995.13;5052670;28;20470;-26
2023/12/22 04:08:40;;;;;;;20.23;10.70;;;;;;;3.17;73.74;97978.16;5053142;28;20036;-26
2023/12/22 04:11:05;;;;;;;22.60;11.02;;;;;;;3.56;72.86;97978.41;5051447;28;20032;-27
2023/12/22 04:13:31;;;;;;;21.75;11.70;;;;;;;3.19;74.01;97972.69;5052629;28;20040;-26
2023/12/22 04:15:56;;;;;;;20.50;10.98;;;;;;;2.95;75.07;97972.22;5052550;28;20113;-26
2023/12/22 04:18:21;;;;;;;20.98;11.40;;;;;;;2.87;75.68;97960.06;5051224;28;20029;-26
2023/12/22 04:20:49;;;;;;;22.35;10.73;;;;;;;3.30;74.85;97969.47;5052013;28;20028;-25
2023/12/22 04:23:15;;;;;;;24.90;10.75;;;;;;;3.30;74.60;97966.84;5051974;28;20466;-26
2023/12/22 04:25:40;;;;;;;20.05;10.45;;;;;;;3.56;73.92;97962.63;5052093;28;20036;-25
2023/12/22 04:28:05;;;;;;;18.67;10.70;;;;;;;3.74;72.86;97959.41;5052453;28;20095;-26
2023/12/22 04:30:31;;;;;;;19.95;10.57;;;;;;;3.52;73.57;97944.63;5052294;28;20102;-27
2023/12/22 04:32:56;;;;;;;25.65;11.43;;;;;;;3.47;73.93;97967.28;5052362;28;20425;-26
2023/12/22 04:35:21;;;;;;;19.45;10.38;;;;;;;3.61;72.91;97968.09;5052447;28;20072;-27
2023/12/22 04:37:47;;;;;;;17.90;10.20;;;;;;;3.74;72.49;97978.63;5052151;28;20028;-26
2023/12/22 04:40:12;;;;;;;19.40;10.98;;;;;;;3.82;72.66;97977.59;5052285;28;20033;-26
2023/12/22 04:42:38;;;;;;;20.58;11.02;;;;;;;3.85;72.88;97967.47;5051899;28;20037;-26
2023/12/22 04:45:03;;;;;;;25.35;11.63;;;;;;;4.02;71.93;97964.44;5051963;28;20064;-26
2023/12/22 04:47:29;;;;;;;18.65;9.80;;;;;;;3.87;71.95;97975.97;5052022;28;20067;-26
2023/12/22 04:49:54;;;;;;;23.60;11.45;;;;;;;3.85;72.70;97971.94;5052191;28;20447;-26
2023/12/22 04:52:19;;;;;;;21.42;11.15;;;;;;;3.58;73.21;97974.56;5051688;28;20025;-26
2023/12/22 04:54:45;;;;;;;21.50;10.82;;;;;;;3.66;73.29;97982.25;5051820;28;20021;-27
2023/12/22 04:57:10;;;;;;;16.83;10.48;;;;;;;3.75;73.73;97979.41;5051795;28;20597;-27
2023/12/22 04:59:35;;;;;;;23.42;10.77;;;;;;;3.60;73.93;97974.34;5050127;28;20044;-26
2023/12/22 05:02:01;;;;;;;22.45;11.35;;;;;;;3.57;73.81;97970.31;5042315;28;20025;-27
2023/12/22 05:04:26;;;;;;;21.55;10.40;;;;;;;3.26;74.38;97950.66;5031818;28;20394;-27
2023/12/22 05:06:51;;;;;;;22.20;11.20;;;;;;;3.37;74.63;97983.47;5030334;28;20025;-27
2023/12/22 05:09:17;;;;;;;23.20;11.38;;;;;;;2.96;75.16;97986.19;5031946;28;20025;-27
2023/12/22 05:11:42;;;;;;;21.70;11.57;;;;;;;2.97;75.46;97986.00;5046093;28;20028;-27
2023/12/22 05:14:09;;;;;;;23.88;12.32;;;;;;;2.64;77.34;97981.41;5048377;28;20035;-27
2023/12/22 05:16:34;;;;;;;22.52;11.05;;;;;;;2.79;76.94;97976.00;5051371;28;20039;-27
2023/12/22 05:19:00;;;;;;;21.15;11.65;;;;;;;4.04;91.01;97981.66;5051765;28;20021;-27
2023/12/22 05:21:27;;;;;;;18.38;10.50;;;;;;;3.83;76.98;97955.56;5051719;28;20427;-26
2023/12/22 05:23:52;;;;;;;19.05;9.98;;;;;;;3.75;75.60;97966.25;5049766;28;20021;-28
2023/12/22 05:26:19;;;;;;;19.95;10.68;;;;;;;3.49;76.41;97952.91;5031658;28;20441;-26
2023/12/22 05:28:44;;;;;;;22.75;11.27;;;;;;;3.55;74.48;97961.81;5031596;28;20075;-27
2023/12/22 05:31:10;;;;;;;25.30;13.65;;;;;;;3.33;75.17;97958.53;5031879;28;20030;-27
2023/12/22 05:33:35;;;;;;;28.35;14.35;;;;;;;3.42;75.07;97961.81;5032058;28;20088;-28
2023/12/22 05:36:00;;;;;;;30.10;15.02;;;;;;;3.29;74.87;97958.16;5031882;28;20033;-26
2023/12/22 05:38:26;;;;;;;26.55;14.57;;;;;;;3.31;75.82;97955.31;5030367;28;20021;-26
2023/12/22 05:40:51;;;;;;;24.85;14.05;;;;;;;3.22;77.51;97964.38;5030431;28;20049;-27
2023/12/22 05:43:16;;;;;;;23.98;13.68;;;;;;;3.37;77.39;97975.56;5041557;28;20028;-27
2023/12/22 05:45:42;;;;;;;25.60;13.88;;;;;;;3.22;75.50;97959.97;5049987;28;20515;-28
2023/12/22 05:48:08;;;;;;;26.35;14.48;;;;;;;3.57;75.58;97957.16;5050606;28;20017;-25
2023/12/22 05:50:33;;;;;;;22.67;13.02;;;;;;;3.50;76.21;97943.19;5050438;28;20021;-27
2023/12/22 05:52:58;;;;;;;24.38;12.77;;;;;;;3.37;76.59;97924.78;5050217;28;20054;-27
2023/12/22 05:55:24;;;;;;;22.25;12.93;;;;;;;3.62;77.66;97944.22;5050313;28;20021;-26
2023/12/22 05:57:49;;;;;;;22.05;12.63;;;;;;;3.67;75.25;97949.66;5051053;28;20504;-26
2023/12/22 06:00:15;;;;;;;24.25;12.77;;;;;;;3.84;74.68;97947.44;5040242;28;20033;-27
2023/12/22 06:02:41;;;;;;;25.35;13.40;;;;;;;3.95;75.47;97945.22;5035988;28;20366;-27
2023/12/22 06:05:06;;;;;;;23.58;12.13;;;;;;;3.78;75.35;97956.16;5031003;28;20108;-26
2023/12/22 06:07:33;;;;;;;24.20;12.73;;;;;;;3.70;75.11;97959.78;5036545;28;20091;-26
2023/12/22 06:09:58;;;;;;;25.92;13.00;;;;;;;3.67;74.06;97951.50;5035874;28;20029;-27
2023/12/22 06:12:23;;;;;;;23.73;12.50;;;;;;;3.64;73.72;97947.44;5030219;28;20038;-26
2023/12/22 06:14:49;;;;;;;23.25;12.02;;;;;;;3.70;74.33;97943.22;5042329;28;20170;-28
2023/12/22 06:17:14;;;;;;;24.33;11.93;;;;;;;3.66;73.92;97953.31;5049783;28;20028;-27
2023/12/22 06:19:39;;;;;;;21.60;11.73;;;;;;;3.51;74.59;97961.41;5049947;28;20020;-28
2023/12/22 06:22:05;;;;;;;26.02;12.63;;;;;;;3.62;74.03;97970.53;5050160;28;20047;-28
2023/12/22 06:24:31;;;;;;;21.02;11.90;;;;;;;3.72;73.69;97978.00;5050180;28;20493;-28
2023/12/22 06:26:56;;;;;;;26.95;13.73;;;;;;;3.50;74.61;97991.38;5054267;28;20473;-28
2023/12/22 06:29:22;;;;;;;26.77;13.25;;;;;;;3.40;75.22;97988.28;5055118;28;20051;-28
2023/12/22 06:31:51;;;;;;;27.10;12.93;;;;;;;3.24;76.02;97973.72;5054965;28;20392;-27
2023/12/22 06:34:17;;;;;;;28.13;14.48;;;;;;;3.35;75.40;97966.25;5054263;28;20047;-27
2023/12/22 06:36:43;;;;;;;28.55;13.70;;;;;;;3.54;74.64;97954.91;5054093;28;20112;-26
2023/12/22 06:39:08;;;;;;;30.55;14.45;;;;;;;3.63;74.76;97961.59;5054913;28;20059;-27
2023/12/22 06:41:34;;;;;;;26.90;14.23;;;;;;;3.45;76.27;97971.94;5034855;28;20044;-27
2023/12/22 06:43:59;;;;;;;23.48;13.45;;;;;;;3.51;75.94;97964.03;5050229;28;20063;-27
2023/12/22 06:46:31;;;;;;;30.13;14.40;;;;;;;3.79;75.04;97978.81;5054612;28;20025;-27
2023/12/22 06:48:57;;;;;;;24.45;13.32;;;;;;;3.93;79.06;97979.63;5054524;28;20033;-27
2023/12/22 06:51:26;;;;;;;27.35;14.75;;;;;;;5.34;80.88;97980.75;5053506;28;20021;-26
2023/12/22 06:53:52;;;;;;;31.38;14.52;;;;;;;5.76;73.30;97973.16;5054567;28;20025;-26
2023/12/22 06:56:19;;;;;;;27.83;13.82;;;;;;;5.75;75.34;97965.44;5052090;28;20539;-27
2023/12/22 06:58:47;;;;;;;24.88;13.68;;;;;;;6.25;68.46;97965.44;5052861;28;20017;-27
2023/12/22 07:01:31;;;;;;;23.58;13.25;;;;;;;6.45;69.66;97967.88;5052622;28;20023;-26
2023/12/22 07:03:57;;;;;;;24.25;13.35;;;;;;;7.56;72.94;97957.88;5052523;28;20469;-27
2023/12/22 07:06:24;;;;;;;23.02;13.82;;;;;;;7.68;61.89;97959.75;5050463;28;20043;-27
2023/12/22 07:09:14;;;;;;;35.22;17.50;;;;;;;7.13;61.91;97966.84;5052272;28;20057;-27
2023/12/22 07:11:43;;;;;;;33.05;17.15;;;;;;;7.11;62.75;97968.13;5046974;28;20116;-40
2023/12/22 07:14:08;;;;;;;39.53;19.08;;;;;;;6.71;62.69;97965.97;5033541;28;20516;-40
2023/12/22 07:16:35;;;;;;;34.60;19.00;;;;;;;5.99;65.52;97959.38;5052165;28;20075;-40
2023/12/22 07:19:01;;;;;;;44.28;22.20;;;;;;;5.78;66.21;97967.66;5052358;28;20104;-39
2023/12/22 07:21:27;;;;;;;42.00;21.10;;;;;;;5.62;66.87;97963.75;5053092;28;20183;-39
2023/12/22 07:23:52;;;;;;;42.35;20.92;;;;;;;6.28;66.44;97964.19;5052536;28;20032;-40
2023/12/22 07:26:17;;;;;;;44.60;22.33;;;;;;;6.16;65.03;97938.50;5047842;28;20452;-39
2023/12/22 07:28:43;;;;;;;41.83;21.98;;;;;;;5.98;66.71;97965.72;5068521;28;20116;-28
2023/12/22 07:31:08;;;;;;;48.72;21.58;;;;;;;6.12;68.74;97970.88;5053403;28;20524;-27
2023/12/22 07:33:34;;;;;;;47.88;20.95;;;;;;;6.64;65.15;97953.66;5053193;28;20057;-26
2023/12/22 07:35:59;;;;;;;41.55;19.52;;;;;;;6.51;65.59;97953.81;5053035;28;20068;-27
2023/12/22 07:38:24;;;;;;;36.20;18.52;;;;;;;6.38;66.65;97957.38;5051188;28;20052;-29
2023/12/22 07:40:50;;;;;;;40.92;18.67;;;;;;;6.23;67.18;97954.31;5048856;28;20523;-27
2023/12/22 07:43:16;;;;;;;35.38;17.95;;;;;;;6.54;65.81;97953.34;5048833;28;20129;-27
2023/12/22 07:45:41;;;;;;;38.88;17.65;;;;;;;6.29;65.58;97937.56;5050993;28;20386;-26
2023/12/22 07:48:07;;;;;;;32.03;17.80;;;;;;;6.17;66.83;97934.84;5051585;28;20028;-27
2023/12/22 07:50:32;;;;;;;39.30;17.75;;;;;;;6.06;66.63;97948.78;5048223;28;20028;-27
2023/12/22 07:52:58;;;;;;;30.92;16.65;;;;;;;6.26;66.71;97943.28;5044557;28;20048;-27
2023/12/22 07:55:24;;;;;;;31.20;16.27;;;;;;;6.37;64.75;97928.53;5044995;28;20573;-28
2023/12/22 07:57:50;;;;;;;33.65;15.30;;;;;;;6.21;65.01;97938.66;5043476;28;20085;-27
2023/12/22 08:00:16;;;;;;;27.77;14.65;;;;;;;6.31;64.78;97940.78;5039765;28;20030;-26
2023/12/22 08:02:41;;;;;;;33.55;14.98;;;;;;;6.24;64.64;97935.59;5045550;28;20083;-27
2023/12/22 08:05:07;;;;;;;29.70;14.13;;;;;;;6.50;63.62;97938.97;5034064;28;20081;-26
2023/12/22 08:07:32;;;;;;;25.73;13.52;;;;;;;6.47;64.65;97936.75;5052002;28;20020;-26
2023/12/22 08:09:58;;;;;;;23.38;12.27;;;;;;;6.56;62.57;97940.72;5051318;28;20029;-29
2023/12/22 08:12:23;;;;;;;23.65;12.35;;;;;;;6.40;62.86;97938.69;5052027;28;20040;-26
2023/12/22 08:14:48;;;;;;;29.75;13.93;;;;;;;6.14;64.34;97937.91;5050705;28;20037;-27
2023/12/22 08:17:14;;;;;;;22.52;13.43;;;;;;;7.01;62.93;97939.56;5051719;28;20064;-28
2023/12/22 08:19:42;;;;;;;30.77;14.45;;;;;;;6.76;62.08;97940.47;5051844;28;20485;-26
2023/12/22 08:22:14;;;;;;;23.02;13.52;;;;;;;6.58;62.02;97959.78;5051493;28;20029;-26
2023/12/22 08:24:39;;;;;;;24.08;12.35;;;;;;;6.11;63.39;97953.38;5051856;28;20138;-27
2023/12/22 08:27:06;;;;;;;26.63;12.95;;;;;;;6.47;64.11;97960.53;5051862;28;20017;-27
2023/12/22 08:29:32;;;;;;;23.55;12.75;;;;;;;6.79;62.85;97961.16;5050726;28;20041;-28
2023/12/22 08:31:57;;;;;;;26.35;11.68;;;;;;;7.28;60.79;97977.03;5049933;28;20029;-28
2023/12/22 08:34:22;;;;;;;19.27;10.80;;;;;;;7.00;60.60;97973.13;5050390;28;20127;-27
2023/12/22 08:36:48;;;;;;;22.50;10.68;;;;;;;7.27;59.89;97959.53;5050077;28;20469;-27
2023/12/22 08:39:13;;;;;;;21.58;10.68;;;;;;;7.15;59.60;97970.06;5049813;28;20025;-27
2023/12/22 08:41:39;;;;;;;20.38;10.77;;;;;;;6.95;60.30;97974.81;5050393;28;20035;-28
2023/12/22 08:44:05;;;;;;;21.23;11.18;;;;;;;7.59;58.97;97961.91;5050000;28;20091;-26
2023/12/22 08:46:30;;;;;;;20.17;11.10;;;;;;;7.72;57.94;97955.63;5050003;28;20021;-27
2023/12/22 08:48:56;;;;;;;21.92;10.80;;;;;;;7.57;58.12;97959.50;5050474;28;20032;-26
2023/12/22 08:51:22;;;;;;;26.83;11.00;;;;;;;7.30;59.02;97958.28;5051017;28;20028;-28
2023/12/22 08:53:49;;;;;;;24.38;11.10;;;;;;;7.26;59.39;97967.72;5051270;28;20412;-27
2023/12/22 08:56:16;;;;;;;22.00;11.10;;;;;;;7.15;60.35;97961.34;5051055;28;20078;-29
2023/12/22 08:58:42;;;;;;;21.80;11.25;;;;;;;7.36;58.51;97955.53;5051129;28;20067;-28
2023/12/22 09:01:07;;;;;;;20.02;10.90;;;;;;;7.26;58.85;97954.47;5051224;28;20057;-27
2023/12/22 09:03:33;;;;;;;23.35;10.77;;;;;;;7.43;59.02;97964.19;5050959;28;20029;-28
2023/12/22 09:05:59;;;;;;;22.67;10.82;;;;;;;7.29;59.54;97972.53;5050862;28;20032;-27
2023/12/22 09:08:25;;;;;;;17.63;9.70;;;;;;;7.33;59.04;97953.34;5050837;28;20025;-27
2023/12/22 09:10:51;;;;;;;19.42;10.57;;;;;;;7.41;59.19;97958.31;5051008;28;20039;-27
2023/12/22 09:13:17;;;;;;;24.50;11.18;;;;;;;8.06;57.83;97958.53;5051315;28;20120;-28
2023/12/22 09:15:42;;;;;;;20.92;11.02;;;;;;;7.87;58.21;97957.81;5051014;28;20104;-28
2023/12/22 09:18:07;;;;;;;19.05;10.23;;;;;;;7.85;58.21;97957.25;5050698;28;20052;-27
2023/12/22 09:20:33;;;;;;;21.60;10.27;;;;;;;7.65;58.33;97958.34;5049354;28;20451;-26
2023/12/22 09:22:58;;;;;;;27.35;10.73;;;;;;;7.37;59.32;97954.50;5050469;28;20063;-28
2023/12/22 09:25:24;;;;;;;22.30;10.13;;;;;;;7.42;59.99;97959.13;5050792;28;20024;-26
2023/12/22 09:27:49;;;;;;;25.58;11.80;;;;;;;8.08;57.88;97959.88;5050892;28;20541;-31
2023/12/22 09:30:15;;;;;;;29.75;12.32;;;;;;;8.14;57.33;97958.97;5050433;28;20124;-27
2023/12/22 09:32:40;;;;;;;24.17;10.90;;;;;;;7.93;59.36;97948.94;5050445;28;20079;-27
2023/12/22 09:35:06;;;;;;;25.20;11.88;;;;;;;7.85;59.26;97958.03;5050551;28;20398;-28
2023/12/22 09:37:31;;;;;;;23.38;10.60;;;;;;;7.76;59.27;97930.28;5050707;28;20112;-28
2023/12/22 09:39:57;;;;;;;24.27;10.95;;;;;;;7.81;59.34;97944.44;5050741;28;20401;-28
2023/12/22 09:42:25;;;;;;;22.73;11.25;;;;;;;8.14;58.44;97943.06;5050775;28;20093;-27
2023/12/22 09:44:54;;;;;;;21.60;11.50;;;;;;;8.33;57.69;97942.94;5050263;28;20397;-27
2023/12/22 09:47:22;;;;;;;21.67;10.60;;;;;;;8.27;57.93;97947.31;5050232;28;20025;-29
2023/12/22 09:49:48;;;;;;;26.33;12.20;;;;;;;8.06;58.61;97951.38;5050509;28;20029;-27
2023/12/22 09:52:16;;;;;;;23.25;11.55;;;;;;;7.80;59.52;97945.47;5050238;28;20025;-27
2023/12/22 09:54:42;;;;;;;20.55;10.63;;;;;;;7.92;59.64;97942.03;5050523;28;20029;-30
2023/12/22 09:57:09;;;;;;;20.50;10.82;;;;;;;8.53;58.19;97946.06;5050278;28;20482;-27
2023/12/22 09:59:35;;;;;;;25.13;11.68;;;;;;;8.30;58.68;97948.69;5050329;28;20100;-28
2023/12/22 10:02:02;;;;;;;22.73;11.18;;;;;;;8.14;59.67;97947.56;5049823;28;20107;-28
2023/12/22 10:04:27;;;;;;;23.75;12.00;;;;;;;8.28;60.22;97938.34;5049883;28;20031;-28
2023/12/22 10:06:57;;;;;;;27.55;12.32;;;;;;;8.20;61.25;97920.13;5049786;28;20025;-26
2023/12/22 10:09:23;;;;;;;29.77;14.32;;;;;;;8.16;62.12;97927.75;5050086;28;20025;-27
2023/12/22 10:11:51;;;;;;;20.48;11.13;;;;;;;8.65;61.37;97930.13;5049531;28;20029;-27
2023/12/22 10:14:22;;;;;;;21.13;10.45;;;;;;;8.27;63.41;97926.13;5049480;28;20083;-26
2023/12/22 10:16:51;;;;;;;20.58;10.30;;;;;;;8.17;64.15;97928.56;5049650;28;20489;-27
2023/12/22 10:19:17;;;;;;;19.40;9.93;;;;;;;8.33;64.01;97911.13;5049994;28;20028;-27
2023/12/22 10:21:42;;;;;;;20.58;10.65;;;;;;;8.31;64.53;97932.56;5049675;28;20055;-27
2023/12/22 10:24:37;;;;;;;21.33;10.90;;;;;;;8.54;64.42;97933.59;5049962;28;20029;-28
2023/12/22 10:27:02;;;;;;;19.33;11.20;;;;;;;8.68;64.55;97927.00;5049512;28;20056;-27
2023/12/22 10:29:28;;;;;;;21.33;11.98;;;;;;;8.43;65.80;97923.81;5050014;28;20068;-28
2023/12/22 10:31:54;;;;;;;19.88;10.85;;;;;;;8.26;68.13;97927.16;5050086;28;20083;-26
2023/12/22 10:34:19;;;;;;;17.48;10.38;;;;;;;8.33;69.66;97937.63;5049635;28;20064;-27
2023/12/22 10:36:45;;;;;;;21.10;10.77;;;;;;;8.11;71.09;97925.00;5049551;28;20032;-27
2023/12/22 10:39:11;;;;;;;22.23;10.52;;;;;;;8.25;71.61;97922.09;5049711;28;20104;-26
2023/12/22 10:41:36;;;;;;;17.92;10.75;;;;;;;8.46;72.23;97921.50;5049735;28;20116;-27
2023/12/22 10:44:03;;;;;;;18.88;10.13;;;;;;;8.06;74.59;97921.44;5049637;28;20382;-26
2023/12/22 10:46:33;;;;;;;16.50;8.88;;;;;;;8.00;76.08;97923.97;5049808;28;20094;-27
2023/12/22 10:48:59;;;;;;;17.45;9.15;;;;;;;8.26;76.71;97924.50;5049460;28;20350;-28
2023/12/22 10:51:24;;;;;;;18.60;9.50;;;;;;;8.22;76.64;97931.31;5049240;28;20025;-28
2023/12/22 10:53:51;;;;;;;15.57;8.63;;;;;;;8.55;76.06;97929.91;5049339;28;20037;-25
2023/12/22 10:56:17;;;;;;;15.52;8.90;;;;;;;8.60;76.73;97924.69;5049590;28;20029;-26
2023/12/22 10:58:42;;;;;;;15.45;8.77;;;;;;;8.86;75.58;97938.47;5049892;28;20035;-28
2023/12/22 11:01:11;;;;;;;15.88;9.10;;;;;;;8.90;75.67;97929.78;5050401;28;20040;-25
2023/12/22 11:03:43;;;;;;;15.32;9.45;;;;;;;8.51;77.66;97918.97;5050252;28;20025;-27
2023/12/22 11:06:12;;;;;;;16.40;8.48;;;;;;;8.30;78.97;97909.78;5050309;28;20040;-27
2023/12/22 11:08:39;;;;;;;18.90;9.27;;;;;;;8.65;78.45;97908.09;5050423;28;20525;-26
2023/12/22 11:11:30;;;;;;;17.00;9.20;;;;;;;8.68;77.54;97910.25;5051373;28;20403;-26
2023/12/22 11:14:00;;;;;;;14.30;8.43;;;;;;;8.52;78.81;97902.00;5054116;28;20033;-28
2023/12/22 11:16:27;;;;;;;;;;;;;;;8.47;78.88;97886.00;5054438;28;20025;-26
2023/12/22 11:18:56;;;;;;;15.43;8.60;;;;;;;8.76;76.90;97878.88;5053872;28;19913;-27
2023/12/22 11:21:26;;;;;;;14.35;8.55;;;;;;;8.72;76.73;97879.56;5054201;28;20039;-27
2023/12/22 11:23:52;;;;;;;;;;;;;;;8.67;76.17;97875.00;5054119;28;20520;-26